Time;durP1;ratioP1;P1;durP2;ratioP2;P2;SDS_P1;SDS_P2;PMS_P1;PMS_P2;Temp;Humidity;BMP_temperature;BMP_pressure;BME280_temperature;BME280_humidity;BME280_pressure;Samples;Min_cycle;Max_cycle;Signal;HPM_P1;HPM_P2
2023/07/13 00:10:53;;;;;;;;;;;;;;;;;;;;;
2023/07/13 00:18:42;;;;;;;;;;;;;;;;;;;;;
2023/07/13 00:29:52;;;;;;;18.20;5.10;;;16.90;99.90;;;;;;5872294;24;20033;-76
2023/07/13 00:33:46;;;;;;;;;;;;;;;;;;;;;
2023/07/13 00:41:10;;;;;;;15.63;4.45;;;16.80;99.90;;;;;;5853784;24;20059;-76
2023/07/13 00:52:43;;;;;;;14.85;3.88;;;16.70;99.90;;;;;;5926217;24;20036;-76
2023/07/13 00:57:06;;;;;;;;;;;;;;;;;;;;;
2023/07/13 01:30:39;;;;;;;;;;;;;;;;;;;;;
2023/07/13 01:37:56;;;;;;;8.23;2.67;;;16.50;99.90;;;;;;5791387;24;20155;-76
2023/07/13 01:41:55;;;;;;;;;;;;;;;;;;;;;
2023/07/13 01:45:50;;;;;;;;;;;;;;;;;;;;;
2023/07/13 02:37:13;;;;;;;11.23;2.00;;;16.20;99.90;;;;;;5925634;24;20028;-76
2023/07/13 02:44:24;;;;;;;;;;;;;;;;;;;;;
2023/07/13 02:48:19;;;;;;;6.45;2.08;;;16.20;99.90;;;;;;5785384;24;20042;-75
2023/07/13 03:03:38;;;;;;;9.38;2.22;;;16.20;99.90;;;;;;5763199;24;20035;-75
2023/07/13 03:26:11;;;;;;;11.20;3.00;;;16.10;99.90;;;;;;5800913;24;20513;-76
2023/07/13 03:29:14;;;;;;;13.60;3.20;;;16.10;99.90;;;;;;5790029;24;20158;-76
2023/07/13 03:48:46;;;;;;;;;;;;;;;;;;;;;
2023/07/13 04:26:53;;;;;;;18.45;4.93;;;16.00;99.90;;;;;;4351246;27;22133694;-75
2023/07/13 04:33:26;;;;;;;20.45;5.28;;;16.30;99.90;;;;;;5125800;27;20402;-76
2023/07/13 04:44:14;;;;;;;18.15;5.70;;;16.20;99.90;;;;;;4958302;28;20137;-76
2023/07/13 04:51:47;;;;;;;;;;;;;;;;;;;;;
2023/07/13 04:55:40;;;;;;;20.05;5.82;;;16.20;99.90;;;;;;4949833;28;20102;-76
2023/07/13 05:03:24;;;;;;;;;;;;;;;;;;;;;
2023/07/13 05:06:13;;;;;;;19.02;6.63;;;16.50;99.90;;;;;;4840434;29;20081;-75
2023/07/13 05:08:58;;;;;;;20.45;5.97;;;16.70;99.90;;;;;;4863637;29;20127;-76
2023/07/13 05:11:47;;;;;;;20.90;6.68;;;16.80;99.90;;;;;;4896172;29;20059;-76
2023/07/13 05:14:31;;;;;;;19.45;6.30;;;16.90;99.90;;;;;;4929375;29;20401;-76
2023/07/13 05:20:34;;;;;;;18.77;6.82;;;17.10;99.90;;;;;;4988700;28;20089;-76
2023/07/13 05:27:27;;;;;;;13.50;6.63;;;17.30;99.90;;;;;;5012324;28;20064;-76
2023/07/13 05:30:22;;;;;;;20.95;7.10;;;17.40;99.90;;;;;;5053740;28;20451;-76
2023/07/13 05:36:43;;;;;;;24.77;7.45;;;17.80;99.90;;;;;;5052609;28;20048;-76
2023/07/13 05:39:40;;;;;;;15.80;5.88;;;17.90;99.90;;;;;;5034488;28;20052;-75
2023/07/13 05:42:35;;;;;;;17.80;5.50;;;18.10;99.90;;;;;;5056899;28;20427;-75
2023/07/13 05:45:41;;;;;;;18.88;5.57;;;18.10;99.90;;;;;;5075163;28;20058;-75
2023/07/13 05:48:25;;;;;;;14.52;5.75;;;18.40;99.90;;;;;;5064335;28;20055;-75
2023/07/13 05:51:13;;;;;;;14.38;5.75;;;18.50;99.90;;;;;;5075848;28;20044;-75
2023/07/13 05:54:31;;;;;;;16.08;5.65;;;18.60;99.90;;;;;;5074177;28;20044;-75
2023/07/13 05:58:20;;;;;;;20.58;6.35;;;18.80;99.90;;;;;;5061410;28;20090;-75
2023/07/13 06:01:20;;;;;;;13.03;4.27;;;19.10;99.90;;;;;;5039976;28;20492;-75
2023/07/13 06:07:41;;;;;;;11.98;4.38;;;19.10;99.90;;;;;;5054774;28;20515;-75
2023/07/13 06:18:20;;;;;;;10.32;4.28;;;19.50;99.90;;;;;;5014969;28;20413;-76
2023/07/13 06:24:29;;;;;;;11.63;3.38;;;19.90;99.90;;;;;;5032928;28;20136;-76
2023/07/13 06:41:38;;;;;;;8.02;2.85;;;20.40;99.90;;;;;;4972421;28;20041;-75
2023/07/13 06:44:28;;;;;;;15.07;3.42;;;20.50;99.90;;;;;;4965831;28;20038;-75
2023/07/13 06:47:20;;;;;;;12.45;3.05;;;20.60;99.90;;;;;;4986281;28;20050;-75
2023/07/13 06:54:10;;;;;;;13.88;2.65;;;20.50;99.90;;;;;;4995689;28;20490;-75
2023/07/13 06:57:50;;;;;;;8.88;2.85;;;20.70;99.90;;;;;;5032139;28;20421;-75
2023/07/13 07:17:57;;;;;;;7.55;2.83;;;20.80;99.90;;;;;;5053781;28;20456;-75
2023/07/13 07:21:12;;;;;;;;;;;;;;;;;;;;;
2023/07/13 07:27:38;;;;;;;8.75;2.55;;;21.40;99.90;;;;;;5053671;28;20171;-74
2023/07/13 07:30:23;;;;;;;9.00;2.53;;;21.40;99.90;;;;;;5035565;28;20127;-74
2023/07/13 07:33:35;;;;;;;10.90;3.00;;;21.40;99.90;;;;;;5035622;28;20037;-75
2023/07/13 07:36:44;;;;;;;11.02;2.72;;;21.40;99.90;;;;;;5016116;28;20141;-75
2023/07/13 07:39:59;;;;;;;8.30;2.42;;;21.60;99.90;;;;;;5015751;28;20421;-75
2023/07/13 07:42:25;;;;;;;10.48;3.13;;;21.50;99.90;;;;;;4992613;28;20054;-82
2023/07/13 07:45:03;;;;;;;15.00;3.40;;;21.30;99.90;;;;;;5015670;28;20169;-75
2023/07/13 07:47:49;;;;;;;7.07;2.60;;;21.30;99.90;;;;;;5015658;28;20049;-75
2023/07/13 07:50:19;;;;;;;7.68;2.28;;;21.50;99.90;;;;;;5015708;28;20053;-75
2023/07/13 07:52:45;;;;;;;11.95;2.85;;;21.70;99.90;;;;;;5032664;28;20049;-74
2023/07/13 07:55:35;;;;;;;7.07;2.63;;;21.80;99.90;;;;;;5033124;28;20068;-74
2023/07/13 07:58:19;;;;;;;8.40;2.40;;;21.60;99.90;;;;;;5033507;28;20048;-74
2023/07/13 08:01:06;;;;;;;10.00;2.50;;;21.40;99.90;;;;;;5030516;28;20487;-75
2023/07/13 08:03:58;;;;;;;6.38;2.50;;;21.30;99.90;;;;;;5033323;28;20041;-75
2023/07/13 08:06:44;;;;;;;6.93;2.55;;;21.00;99.90;;;;;;5013551;28;20061;-75
2023/07/13 08:09:28;;;;;;;7.22;2.30;;;20.80;99.90;;;;;;5015374;28;20048;-75
2023/07/13 08:12:17;;;;;;;;;;;;;;;;;;;;;
2023/07/13 08:15:00;;;;;;;9.40;4.75;;;20.60;99.90;;;;;;5032662;28;20108;-75
2023/07/13 08:17:46;;;;;;;11.43;3.03;;;20.90;99.90;;;;;;5015783;28;20049;-75
2023/07/13 08:20:33;;;;;;;8.65;2.90;;;21.10;99.90;;;;;;5033418;28;20045;-75
2023/07/13 08:23:04;;;;;;;7.57;2.50;;;21.50;99.90;;;;;;5015827;28;20049;-75
2023/07/13 08:25:35;;;;;;;7.30;2.97;;;21.70;99.90;;;;;;5015553;28;20489;-75
2023/07/13 08:29:14;;;;;;;9.15;3.22;;;21.90;99.90;;;;;;5015414;28;20393;-75
2023/07/13 08:34:55;;;;;;;8.98;3.13;;;22.20;99.90;;;;;;4946347;28;20054;-75
2023/07/13 08:38:21;;;;;;;;;;;;;;;;;;;;;
2023/07/13 08:41:51;;;;;;;11.98;3.35;;;21.90;99.90;;;;;;5006469;28;20057;-76
2023/07/13 08:44:58;;;;;;;7.32;3.00;;;22.10;99.90;;;;;;5033354;28;20048;-76
2023/07/13 08:47:51;;;;;;;11.95;3.30;;;22.50;99.90;;;;;;4984846;28;20080;-76
2023/07/13 08:50:51;;;;;;;11.25;3.20;;;22.70;99.90;;;;;;5014397;28;20128;-75
2023/07/13 08:54:14;;;;;;;17.17;3.72;;;22.60;99.90;;;;;;5014059;28;20137;-75
2023/07/13 08:56:49;;;;;;;11.27;3.00;;;22.30;99.90;;;;;;5015071;28;20096;-75
2023/07/13 08:59:21;;;;;;;11.10;3.65;;;21.70;99.90;;;;;;5033140;28;20047;-75
2023/07/13 09:02:01;;;;;;;8.30;3.40;;;21.40;99.90;;;;;;5018111;28;20049;-75
2023/07/13 09:05:10;;;;;;;12.27;3.67;;;21.00;99.90;;;;;;5019084;28;20512;-75
2023/07/13 09:08:08;;;;;;;10.75;3.15;;;21.20;99.90;;;;;;5019014;28;20064;-75
2023/07/13 09:11:23;;;;;;;10.95;3.15;;;21.00;99.90;;;;;;5036455;28;20042;-76
2023/07/13 09:14:44;;;;;;;8.63;2.92;;;21.00;99.90;;;;;;4956078;29;20051;-76
2023/07/13 09:18:27;;;;;;;8.10;2.70;;;20.90;99.90;;;;;;4955938;29;20069;-75
2023/07/13 09:21:56;;;;;;;;;;;;;;;;;;;;;
2023/07/13 09:25:50;;;;;;;7.47;2.63;;;21.30;99.90;;;;;;4841178;29;20064;-75
2023/07/13 09:28:31;;;;;;;7.43;2.70;;;21.70;99.90;;;;;;4883553;29;20053;-76
2023/07/13 09:32:07;;;;;;;10.98;3.00;;;21.40;99.90;;;;;;4954027;28;20058;-75
2023/07/13 09:35:24;;;;;;;7.30;2.13;;;21.60;99.90;;;;;;4909523;29;20546;-75
2023/07/13 09:38:36;;;;;;;;;;;;;;;;;;;;;
2023/07/13 09:41:42;;;;;;;6.82;1.90;;;21.50;99.90;;;;;;5018445;28;20115;-75
2023/07/13 09:44:30;;;;;;;6.53;2.25;;;21.90;99.90;;;;;;5010334;28;20076;-75
2023/07/13 09:46:59;;;;;;;5.75;1.85;;;22.10;99.90;;;;;;5018381;28;20046;-75
2023/07/13 09:49:39;;;;;;;6.10;1.83;;;22.00;99.90;;;;;;5018029;28;20564;-75
2023/07/13 09:53:01;;;;;;;4.70;1.85;;;22.00;99.90;;;;;;5017683;28;20543;-75
2023/07/13 09:56:14;;;;;;;7.63;2.33;;;21.90;99.90;;;;;;5017755;28;20049;-75
2023/07/13 09:59:30;;;;;;;4.68;2.03;;;22.20;99.90;;;;;;5016912;28;20141;-75
2023/07/13 10:02:20;;;;;;;6.07;1.67;;;22.20;99.90;;;;;;5003166;28;20088;-76
2023/07/13 10:04:46;;;;;;;5.53;2.00;;;22.40;99.90;;;;;;5017486;28;20130;-76
2023/07/13 10:07:15;;;;;;;8.13;1.90;;;22.40;99.90;;;;;;5023513;28;20082;-76
2023/07/13 10:10:28;;;;;;;4.68;1.95;;;22.40;99.90;;;;;;5075165;28;20397;-75
2023/07/13 10:13:21;;;;;;;5.35;1.70;;;22.30;99.90;;;;;;5066695;28;20053;-75
2023/07/13 10:15:58;;;;;;;9.60;2.88;;;22.40;99.90;;;;;;5010442;28;20055;-73
2023/07/13 10:22:43;;;;;;;9.93;2.25;;;22.70;99.90;;;;;;5070233;28;20048;-75
2023/07/13 10:26:02;;;;;;;7.40;2.38;;;22.90;99.90;;;;;;5032318;28;20088;-76
2023/07/13 10:28:58;;;;;;;;;;;;;;;;;;;;;
2023/07/13 10:31:36;;;;;;;9.40;2.58;;;23.20;99.90;;;;;;5071620;28;20107;-75
2023/07/13 10:34:15;;;;;;;6.57;2.17;;;23.20;99.90;;;;;;5056701;28;20072;-75
2023/07/13 10:37:08;;;;;;;8.30;2.10;;;23.10;99.90;;;;;;5056847;28;20139;-75
2023/07/13 10:39:50;;;;;;;8.48;2.30;;;23.10;99.90;;;;;;5074928;28;20396;-75
2023/07/13 10:46:06;;;;;;;7.05;2.55;;;22.80;99.90;;;;;;5056818;28;20083;-75
2023/07/13 10:48:42;;;;;;;8.18;2.47;;;22.90;99.90;;;;;;5056754;28;20116;-75
2023/07/13 10:51:14;;;;;;;8.20;2.75;;;23.00;99.90;;;;;;5056545;28;20091;-75
2023/07/13 10:53:42;;;;;;;;;;;23.00;99.90;;;;;;5063743;28;20408;-75
2023/07/13 10:56:12;;;;;;;7.40;2.20;;;22.60;99.90;;;;;;5056887;28;19970;-75
2023/07/13 10:59:14;;;;;;;5.75;2.33;;;22.70;99.90;;;;;;5056324;28;20053;-76
2023/07/13 11:02:26;;;;;;;4.63;2.45;;;22.60;99.90;;;;;;5056468;28;20127;-75
2023/07/13 11:04:54;;;;;;;8.32;2.78;;;22.50;99.90;;;;;;5056781;28;20049;-75
2023/07/13 11:07:52;;;;;;;6.25;2.40;;;22.60;99.90;;;;;;5063856;28;20048;-75
2023/07/13 11:10:49;;;;;;;6.28;2.42;;;22.70;99.90;;;;;;5074169;28;20412;-75
2023/07/13 11:13:48;;;;;;;6.45;2.72;;;23.00;99.90;;;;;;5073803;28;20114;-75
2023/07/13 11:16:44;;;;;;;7.05;2.60;;;22.90;99.90;;;;;;5055984;28;20099;-75
2023/07/13 11:19:32;;;;;;;6.22;3.05;;;22.80;99.90;;;;;;5055169;28;20409;-75
2023/07/13 11:22:22;;;;;;;8.20;2.92;;;22.90;99.90;;;;;;5056054;28;20480;-75
2023/07/13 11:25:26;;;;;;;6.28;3.22;;;22.60;99.90;;;;;;5073749;28;20123;-75
2023/07/13 11:28:27;;;;;;;8.32;3.92;;;22.50;99.90;;;;;;5074156;28;20083;-75
2023/07/13 11:31:15;;;;;;;6.43;2.30;;;22.60;99.90;;;;;;5056564;28;20046;-75
2023/07/13 11:33:53;;;;;;;9.10;2.83;;;22.50;99.90;;;;;;5056094;28;20052;-75
2023/07/13 11:36:27;;;;;;;4.75;2.40;;;22.40;99.90;;;;;;5073708;28;20048;-75
2023/07/13 11:39:22;;;;;;;8.15;2.50;;;22.40;99.90;;;;;;5073841;28;20231;-75
2023/07/13 11:42:02;;;;;;;7.38;3.30;;;22.60;99.90;;;;;;5073530;28;20048;-74
2023/07/13 11:44:31;;;;;;;5.78;2.72;;;22.80;99.90;;;;;;5055771;28;20044;-75
2023/07/13 11:47:04;;;;;;;9.30;3.45;;;22.80;99.90;;;;;;5055897;28;20052;-75
2023/07/13 11:49:34;;;;;;;9.00;2.58;;;22.90;99.90;;;;;;5073437;28;20044;-74
2023/07/13 11:52:10;;;;;;;9.50;2.70;;;22.90;99.90;;;;;;5055808;28;20115;-74
2023/07/13 11:54:57;;;;;;;9.10;3.13;;;23.10;99.90;;;;;;5055639;28;20127;-74
2023/07/13 11:57:31;;;;;;;12.10;4.00;;;23.00;99.90;;;;;;5072930;28;20048;-74
2023/07/13 11:59:57;;;;;;;8.93;2.90;;;23.20;99.90;;;;;;5055779;28;20055;-74
2023/07/13 12:02:35;;;;;;;14.43;3.70;;;23.10;99.90;;;;;;5055321;28;20174;-74
2023/07/13 12:05:03;;;;;;;11.45;3.70;;;22.90;99.90;;;;;;5073438;28;20048;-74
2023/07/13 12:07:31;;;;;;;13.55;3.72;;;22.80;99.90;;;;;;5055390;28;20044;-75
2023/07/13 12:10:17;;;;;;;14.52;4.13;;;22.80;99.90;;;;;;5055316;28;20048;-75
2023/07/13 12:13:00;;;;;;;6.88;3.25;;;22.80;99.90;;;;;;5055292;28;20516;-74
2023/07/13 12:15:46;;;;;;;9.60;3.15;;;22.80;99.90;;;;;;5053889;28;20056;-74
2023/07/13 12:18:19;;;;;;;8.82;3.20;;;22.50;99.90;;;;;;5055468;28;20040;-74
2023/07/13 12:20:46;;;;;;;8.30;3.00;;;22.30;99.90;;;;;;5055627;28;20407;-75
2023/07/13 12:23:25;;;;;;;9.18;3.58;;;22.30;99.90;;;;;;5073445;28;20124;-74
2023/07/13 12:25:52;;;;;;;10.35;3.10;;;22.30;99.90;;;;;;5055504;28;20099;-74
2023/07/13 12:28:43;;;;;;;13.70;3.42;;;22.30;99.90;;;;;;5073285;28;20044;-74
2023/07/13 12:31:34;;;;;;;12.13;4.00;;;22.40;99.90;;;;;;5055388;28;20055;-74
2023/07/13 12:34:27;;;;;;;12.57;4.28;;;22.40;99.90;;;;;;5055266;28;20040;-74
2023/07/13 12:36:59;;;;;;;13.40;3.85;;;22.00;99.90;;;;;;5058528;28;20048;-74
2023/07/13 12:39:45;;;;;;;11.40;3.47;;;21.70;99.90;;;;;;5076961;28;20040;-75
2023/07/13 12:42:28;;;;;;;11.20;3.63;;;21.80;99.90;;;;;;5059375;28;20063;-74
2023/07/13 12:45:32;;;;;;;9.40;4.35;;;21.70;99.90;;;;;;5059245;28;20048;-74
2023/07/13 12:48:12;;;;;;;14.85;4.38;;;21.70;99.90;;;;;;4995438;28;20074;-74
2023/07/13 12:50:46;;;;;;;10.45;3.65;;;21.80;99.90;;;;;;5052015;28;20117;-74
2023/07/13 12:53:20;;;;;;;10.48;3.10;;;22.00;99.90;;;;;;5076773;28;20123;-74
2023/07/13 12:55:48;;;;;;;10.75;3.80;;;22.30;99.90;;;;;;5076631;28;20045;-74
2023/07/13 12:58:38;;;;;;;13.85;4.18;;;22.40;99.90;;;;;;5058678;28;20111;-74
2023/07/13 13:01:05;;;;;;;10.88;3.60;;;22.30;99.90;;;;;;5058429;28;20114;-75
2023/07/13 13:03:46;;;;;;;10.95;3.30;;;22.10;99.90;;;;;;5058977;28;20063;-74
2023/07/13 13:06:15;;;;;;;11.38;3.53;;;22.00;99.90;;;;;;5058616;28;20049;-74
2023/07/13 13:08:42;;;;;;;11.60;3.50;;;22.10;99.90;;;;;;5058709;28;20503;-74
2023/07/13 13:11:09;;;;;;;7.75;3.95;;;22.00;99.90;;;;;;5058823;28;20055;-74
2023/07/13 13:13:35;;;;;;;13.52;3.97;;;21.90;99.90;;;;;;5058141;28;20056;-75
2023/07/13 13:16:24;;;;;;;13.30;3.55;;;22.00;99.90;;;;;;5076081;28;20143;-74
2023/07/13 13:18:56;;;;;;;8.95;3.67;;;22.00;99.90;;;;;;5076308;28;20443;-74
2023/07/13 13:21:23;;;;;;;11.68;3.90;;;21.80;99.90;;;;;;5058361;28;20051;-74
2023/07/13 13:23:51;;;;;;;8.50;3.72;;;21.70;99.90;;;;;;5076386;28;20055;-74
2023/07/13 13:26:16;;;;;;;11.15;3.88;;;21.80;99.90;;;;;;5076299;28;20048;-75
2023/07/13 13:28:44;;;;;;;8.93;3.85;;;21.80;99.90;;;;;;5058120;28;20041;-74
2023/07/13 13:31:13;;;;;;;12.07;3.90;;;21.80;99.90;;;;;;5058141;28;20492;-73
2023/07/13 13:33:45;;;;;;;10.13;4.70;;;21.80;99.90;;;;;;5057967;28;20127;-73
2023/07/13 13:36:32;;;;;;;15.25;4.97;;;21.60;99.90;;;;;;5058139;28;20045;-74
2023/07/13 13:38:58;;;;;;;10.20;4.28;;;21.60;99.90;;;;;;5058215;28;20556;-74
2023/07/13 13:41:23;;;;;;;12.35;3.65;;;21.70;99.90;;;;;;5056897;28;20143;-74
2023/07/13 13:43:52;;;;;;;15.00;3.92;;;22.00;99.90;;;;;;5076058;28;20076;-74
2023/07/13 13:46:20;;;;;;;11.80;3.78;;;22.00;99.90;;;;;;5075261;28;20108;-74
2023/07/13 13:48:47;;;;;;;15.15;4.60;;;21.90;99.90;;;;;;5058121;28;20045;-74
2023/07/13 13:51:21;;;;;;;12.75;4.13;;;21.90;99.90;;;;;;5057717;28;20075;-74
2023/07/13 13:53:48;;;;;;;12.32;4.65;;;22.20;99.90;;;;;;5056999;28;20072;-74
2023/07/13 13:56:21;;;;;;;11.25;4.18;;;22.20;99.90;;;;;;5075792;28;20106;-75
2023/07/13 13:58:46;;;;;;;11.57;4.30;;;22.10;99.90;;;;;;5057818;28;20052;-74
2023/07/13 14:01:17;;;;;;;11.27;4.43;;;22.00;99.90;;;;;;5057749;28;20056;-74
2023/07/13 14:03:43;;;;;;;10.52;4.40;;;22.10;99.90;;;;;;5057304;28;20123;-74
2023/07/13 14:06:14;;;;;;;16.58;4.95;;;22.30;99.90;;;;;;5057684;28;20128;-74
2023/07/13 14:08:47;;;;;;;14.32;4.72;;;22.10;99.90;;;;;;5057736;28;20476;-75
2023/07/13 14:11:18;;;;;;;12.95;4.60;;;21.70;99.90;;;;;;5057300;28;20053;-74
2023/07/13 14:14:02;;;;;;;15.38;5.60;;;21.90;99.90;;;;;;5057109;28;20052;-74
2023/07/13 14:16:31;;;;;;;11.95;3.83;;;22.10;99.90;;;;;;5057544;28;20040;-74
2023/07/13 14:18:59;;;;;;;13.02;3.90;;;22.10;99.90;;;;;;5075150;28;20594;-74
2023/07/13 14:21:27;;;;;;;7.88;4.10;;;22.20;99.90;;;;;;5075082;28;20044;-74
2023/07/13 14:23:53;;;;;;;11.10;3.78;;;22.20;99.90;;;;;;5057184;28;20053;-74
2023/07/13 14:26:21;;;;;;;7.43;3.90;;;22.20;99.90;;;;;;5057560;28;20047;-74
2023/07/13 14:28:55;;;;;;;9.50;3.85;;;22.10;99.90;;;;;;5075169;28;20052;-74
2023/07/13 14:31:22;;;;;;;10.45;3.75;;;22.20;99.90;;;;;;5057332;28;20109;-74
2023/07/13 14:33:48;;;;;;;9.20;4.72;;;22.10;99.90;;;;;;5074847;28;20048;-74
2023/07/13 14:36:33;;;;;;;13.25;4.72;;;22.10;99.90;;;;;;5056936;28;20045;-74
2023/07/13 14:39:33;;;;;;;11.60;4.00;;;22.00;99.90;;;;;;5057124;28;20377;-74
2023/07/13 14:41:59;;;;;;;8.68;3.78;;;21.90;99.90;;;;;;5030139;28;20064;-74
2023/07/13 14:44:30;;;;;;;9.70;3.50;;;21.80;99.90;;;;;;5056649;28;20105;-74
2023/07/13 14:47:01;;;;;;;12.43;3.92;;;21.70;99.90;;;;;;5056960;28;20070;-75
2023/07/13 14:49:41;;;;;;;12.18;4.40;;;21.60;99.90;;;;;;5056855;28;20055;-75
2023/07/13 14:52:19;;;;;;;11.52;4.10;;;21.80;99.90;;;;;;5056924;28;20468;-75
2023/07/13 14:54:48;;;;;;;9.25;3.60;;;21.50;99.90;;;;;;5056423;28;20147;-74
2023/07/13 14:57:20;;;;;;;16.25;4.35;;;21.60;99.90;;;;;;5056751;28;20063;-74
2023/07/13 14:59:51;;;;;;;8.50;4.03;;;21.80;99.90;;;;;;5055876;28;20480;-74
2023/07/13 15:02:29;;;;;;;9.13;4.18;;;21.60;99.90;;;;;;5056610;28;20392;-74
2023/07/13 15:04:56;;;;;;;12.90;5.53;;;21.80;99.90;;;;;;5056585;28;20052;-74
2023/07/13 15:07:23;;;;;;;13.00;4.80;;;21.70;99.90;;;;;;5056277;28;20477;-73
2023/07/13 15:09:48;;;;;;;13.77;4.30;;;21.60;99.90;;;;;;5056572;28;20055;-74
2023/07/13 15:12:17;;;;;;;9.70;3.58;;;21.60;99.90;;;;;;5056151;28;20412;-73
2023/07/13 15:14:43;;;;;;;10.73;4.00;;;21.60;99.90;;;;;;5074035;28;20048;-74
2023/07/13 15:17:36;;;;;;;11.68;3.90;;;21.60;99.90;;;;;;5074246;28;20041;-74
2023/07/13 15:20:25;;;;;;;11.43;4.45;;;21.40;99.90;;;;;;5046134;28;20056;-74
2023/07/13 15:22:51;;;;;;;11.98;4.55;;;21.40;99.90;;;;;;5063012;28;20127;-74
2023/07/13 15:25:30;;;;;;;10.00;3.80;;;21.40;99.90;;;;;;5055920;28;20056;-73
2023/07/13 15:30:52;;;;;;;8.52;3.78;;;21.20;99.90;;;;;;5052604;28;20053;-74
2023/07/13 15:33:29;;;;;;;13.10;4.63;;;21.10;99.90;;;;;;5032791;28;20139;-74
2023/07/13 15:35:55;;;;;;;16.10;4.22;;;21.00;99.90;;;;;;5053881;28;20295;-74
2023/07/13 15:38:25;;;;;;;12.30;4.07;;;21.00;99.90;;;;;;5053922;28;20096;-73
2023/07/13 15:40:51;;;;;;;10.57;4.13;;;21.20;99.90;;;;;;5053560;28;20493;-74
2023/07/13 15:43:18;;;;;;;9.43;3.65;;;21.30;99.90;;;;;;5035684;28;20048;-74
2023/07/13 15:45:46;;;;;;;11.30;5.10;;;21.20;99.90;;;;;;5053543;28;20079;-75
2023/07/13 15:48:23;;;;;;;9.68;3.85;;;21.10;99.90;;;;;;5035981;28;20153;-74
2023/07/13 15:50:54;;;;;;;9.70;3.80;;;21.10;99.90;;;;;;5035948;28;20558;-75
2023/07/13 15:53:40;;;;;;;12.25;4.30;;;21.10;99.90;;;;;;5035818;28;20048;-75
2023/07/13 15:56:22;;;;;;;10.27;4.63;;;21.00;99.90;;;;;;5044963;28;20065;-75
2023/07/13 15:58:48;;;;;;;8.20;4.20;;;21.00;99.90;;;;;;5053408;28;20052;-74
2023/07/13 16:01:14;;;;;;;9.57;3.88;;;20.80;99.90;;;;;;5053396;28;20033;-74
2023/07/13 16:03:43;;;;;;;12.32;4.03;;;20.70;99.90;;;;;;5035310;28;20441;-74
2023/07/13 16:06:32;;;;;;;12.00;4.10;;;20.70;99.90;;;;;;5053341;28;20583;-74
2023/07/13 16:08:58;;;;;;;7.10;3.50;;;20.70;99.90;;;;;;5053405;28;20049;-74
2023/07/13 16:11:27;;;;;;;9.80;3.80;;;20.90;99.90;;;;;;5035544;28;20047;-74
2023/07/13 16:13:54;;;;;;;8.18;4.45;;;20.80;99.90;;;;;;5068872;28;20416;-75
2023/07/13 16:16:25;;;;;;;10.45;3.72;;;20.90;99.90;;;;;;5035600;28;20088;-74
2023/07/13 16:18:56;;;;;;;7.88;3.53;;;20.80;99.90;;;;;;5035649;28;20408;-74
2023/07/13 16:21:31;;;;;;;8.10;4.35;;;20.80;99.90;;;;;;5035366;28;20045;-74
2023/07/13 16:23:58;;;;;;;9.75;3.72;;;20.70;99.90;;;;;;5035288;28;20049;-74
2023/07/13 16:26:39;;;;;;;8.50;3.90;;;20.70;99.90;;;;;;5035602;28;20401;-74
2023/07/13 16:29:17;;;;;;;10.00;4.05;;;20.70;99.90;;;;;;5026496;28;20056;-74
2023/07/13 16:31:59;;;;;;;10.65;4.10;;;20.70;99.90;;;;;;5015655;28;20054;-74
2023/07/13 16:34:25;;;;;;;8.07;3.47;;;20.70;99.90;;;;;;5015913;28;20048;-74
2023/07/13 16:36:52;;;;;;;10.32;3.60;;;20.80;99.90;;;;;;5033356;28;20046;-74
2023/07/13 16:39:18;;;;;;;11.43;3.95;;;20.80;99.90;;;;;;5015711;28;20037;-74
2023/07/13 16:41:47;;;;;;;13.13;4.40;;;20.70;99.90;;;;;;5015779;28;20057;-74
2023/07/13 16:44:17;;;;;;;12.10;3.83;;;20.70;99.90;;;;;;5033167;28;20042;-74
2023/07/13 16:46:43;;;;;;;7.10;3.38;;;20.70;99.90;;;;;;5015552;28;20041;-74
2023/07/13 16:49:39;;;;;;;10.25;4.40;;;20.70;99.90;;;;;;5015330;28;20404;-74
2023/07/13 16:52:05;;;;;;;7.50;3.50;;;20.70;99.90;;;;;;5015555;28;20463;-74
2023/07/13 16:54:33;;;;;;;12.40;3.95;;;20.70;99.90;;;;;;5015478;28;20041;-74
2023/07/13 16:57:02;;;;;;;11.73;4.45;;;20.70;99.90;;;;;;5032933;28;20191;-74
2023/07/13 16:59:33;;;;;;;8.90;3.78;;;20.60;99.90;;;;;;5033087;28;20402;-74
2023/07/13 17:02:34;;;;;;;8.48;3.95;;;20.70;99.90;;;;;;5015363;28;20049;-74
2023/07/13 17:05:01;;;;;;;8.18;3.30;;;20.50;99.90;;;;;;5015241;28;20052;-74
2023/07/13 17:07:28;;;;;;;6.93;3.63;;;20.50;99.90;;;;;;5033101;28;20049;-75
2023/07/13 17:09:54;;;;;;;8.10;3.60;;;20.40;99.90;;;;;;5032806;28;20567;-74
2023/07/13 17:12:21;;;;;;;8.65;3.45;;;20.50;99.90;;;;;;5032699;28;20068;-74
2023/07/13 17:14:47;;;;;;;11.70;4.05;;;20.40;99.90;;;;;;5015048;28;20050;-74
2023/07/13 17:17:31;;;;;;;10.98;3.60;;;20.40;99.90;;;;;;5015237;28;20516;-74
2023/07/13 17:19:59;;;;;;;8.27;3.53;;;20.30;99.90;;;;;;5032710;28;20481;-75
2023/07/13 17:22:27;;;;;;;9.75;3.58;;;20.40;99.90;;;;;;5034916;28;20033;-75
2023/07/13 17:24:54;;;;;;;8.90;3.72;;;20.30;99.90;;;;;;5036201;28;20052;-74
2023/07/13 17:27:20;;;;;;;8.43;3.75;;;20.20;99.90;;;;;;5018697;28;20052;-75
2023/07/13 17:30:05;;;;;;;8.07;3.72;;;20.20;99.90;;;;;;5050405;28;20508;-75
2023/07/13 17:32:31;;;;;;;10.85;4.32;;;20.10;99.90;;;;;;5038202;28;20484;-74
2023/07/13 17:34:56;;;;;;;9.43;3.70;;;20.20;99.90;;;;;;5038103;28;20056;-74
2023/07/13 17:37:22;;;;;;;11.85;4.10;;;20.20;99.90;;;;;;5037051;28;20042;-75
2023/07/13 17:40:00;;;;;;;9.45;4.30;;;20.10;99.90;;;;;;5055321;28;20056;-75
2023/07/13 17:42:26;;;;;;;9.48;3.95;;;20.10;99.90;;;;;;5056152;28;20091;-74
2023/07/13 17:44:57;;;;;;;8.63;4.43;;;20.10;99.90;;;;;;5038095;28;20072;-74
2023/07/13 17:47:27;;;;;;;10.93;4.23;;;20.00;99.90;;;;;;5038269;28;20051;-74
2023/07/13 17:49:54;;;;;;;7.28;3.80;;;20.00;99.90;;;;;;5037752;28;20599;-74
2023/07/13 17:52:19;;;;;;;8.48;3.60;;;19.90;99.90;;;;;;5055853;28;20091;-74
2023/07/13 17:54:45;;;;;;;8.40;4.03;;;19.80;99.90;;;;;;5071161;28;20044;-74
2023/07/13 17:57:11;;;;;;;9.00;4.28;;;19.80;99.90;;;;;;5037849;28;20404;-74
2023/07/13 17:59:39;;;;;;;10.18;4.22;;;19.80;99.90;;;;;;5037795;28;20103;-73
2023/07/13 18:02:17;;;;;;;7.93;3.70;;;19.80;99.90;;;;;;5037845;28;20037;-74
2023/07/13 18:04:45;;;;;;;9.40;4.22;;;19.90;99.90;;;;;;5055824;28;20126;-73
2023/07/13 18:07:17;;;;;;;12.40;5.13;;;19.70;99.90;;;;;;5037643;28;20045;-73
2023/07/13 18:09:45;;;;;;;10.15;3.90;;;19.70;99.90;;;;;;5037829;28;20056;-73
2023/07/13 18:12:12;;;;;;;9.27;3.72;;;19.70;99.90;;;;;;5055375;28;20484;-73
2023/07/13 18:14:40;;;;;;;11.63;4.50;;;19.60;99.90;;;;;;5055265;28;20384;-73
2023/07/13 18:17:12;;;;;;;11.35;4.28;;;19.60;99.90;;;;;;5037617;28;20052;-73
2023/07/13 18:19:41;;;;;;;6.95;3.47;;;19.50;99.90;;;;;;5055467;28;20033;-73
2023/07/13 18:22:15;;;;;;;8.68;4.40;;;19.50;99.90;;;;;;5055285;28;20037;-73
2023/07/13 18:24:44;;;;;;;7.07;3.70;;;19.40;99.90;;;;;;5070587;28;20049;-73
2023/07/13 18:27:11;;;;;;;10.50;4.10;;;19.20;99.90;;;;;;5037284;28;20045;-73
2023/07/13 18:29:37;;;;;;;10.10;4.18;;;19.20;99.90;;;;;;5036894;28;20061;-73
2023/07/13 18:32:07;;;;;;;9.57;4.28;;;19.10;99.90;;;;;;5054960;28;20048;-73
2023/07/13 18:34:37;;;;;;;9.95;4.75;;;19.10;99.90;;;;;;5054943;28;20531;-73
2023/07/13 18:37:03;;;;;;;10.45;4.25;;;19.10;99.90;;;;;;5054932;28;20099;-73
2023/07/13 18:39:28;;;;;;;10.18;4.35;;;19.10;99.90;;;;;;5054840;28;20412;-73
2023/07/13 18:41:55;;;;;;;9.73;4.50;;;19.00;99.90;;;;;;5054720;28;20131;-73
2023/07/13 18:44:20;;;;;;;8.82;4.43;;;19.00;99.90;;;;;;5054669;28;20400;-73
2023/07/13 18:46:46;;;;;;;8.93;4.28;;;19.00;99.90;;;;;;5054964;28;20033;-73
2023/07/13 18:49:13;;;;;;;12.35;4.57;;;19.00;99.90;;;;;;5054581;28;20052;-73
2023/07/13 18:51:39;;;;;;;13.30;5.38;;;19.00;99.90;;;;;;5037002;28;20556;-73
2023/07/13 18:54:12;;;;;;;13.23;5.25;;;19.00;99.90;;;;;;5054556;28;20168;-73
2023/07/13 18:56:37;;;;;;;10.65;5.28;;;18.90;99.90;;;;;;5036688;28;20520;-73
2023/07/13 18:59:03;;;;;;;8.93;4.65;;;18.90;99.90;;;;;;5036630;28;20548;-73
2023/07/13 19:01:34;;;;;;;13.07;5.45;;;18.90;99.90;;;;;;5036954;28;20492;-73
2023/07/13 19:04:19;;;;;;;13.77;5.45;;;18.80;99.90;;;;;;5036594;28;20103;-73
2023/07/13 19:06:44;;;;;;;14.73;5.90;;;18.80;99.90;;;;;;5054369;28;20048;-73
2023/07/13 19:09:11;;;;;;;11.98;5.60;;;18.70;99.90;;;;;;5036344;28;20045;-73
2023/07/13 19:11:40;;;;;;;11.80;5.25;;;18.60;99.90;;;;;;5054442;28;20044;-73
2023/07/13 19:14:15;;;;;;;15.50;5.78;;;18.60;99.90;;;;;;5054043;28;20424;-73
2023/07/13 19:16:41;;;;;;;14.07;6.35;;;18.60;99.90;;;;;;5054400;28;20044;-73
2023/07/13 19:19:15;;;;;;;12.13;5.80;;;18.60;99.90;;;;;;5036202;28;20401;-74
2023/07/13 19:21:42;;;;;;;12.18;5.53;;;18.60;99.90;;;;;;5054187;28;20044;-74
2023/07/13 19:24:34;;;;;;;15.65;6.00;;;18.50;99.90;;;;;;5053982;28;20444;-74
2023/07/13 19:27:03;;;;;;;16.35;6.18;;;18.60;99.90;;;;;;5050106;28;20052;-74
2023/07/13 19:29:30;;;;;;;15.57;6.03;;;18.50;99.90;;;;;;5035983;28;20056;-73